TESLIN (AUT) Y.T. current weather conditions

sailwx.info

Wind at 1 knots

Air temperature -19.0° C
Visibility: greater than 26.1 NM
Dewpoint -21.0° C

Last reported at 2018-Feb-24 17:00 UTC.
Time now 2018-Feb-24 18:30 UTC

Location: N 60°10' W 132°44'.
View on Google Maps.

See reports from other nearby stations

  
Tides and Currents Weather Stations Pressure Air Temp Water Temp Dewpoint Dewpoint Depression Visibility Wind Speed Wind Dir Waves Ship Positions
date/time (UTC)wind fromknots sea level pressurealtimeterstation pressurevisibilityair tempwater tempwave heightnotes
2018-Feb-24 18:00 250 2 26.1-21.0
2018-Feb-24 17:00 26.1-19.0
2018-Feb-24 01:00 300 11 gusting 17 17.4-6.0 Light low drifting snow.
2018-Feb-24 00:00 300 9 gusting 19 13.0-6.0 Light low drifting snow.
2018-Feb-23 23:00 310 13 gusting 20 8.7-5.0
2018-Feb-23 22:00 310 13 gusting 19 8.7-5.0
2018-Feb-23 21:33 300 9 6.9-5.0
2018-Feb-23 21:00 290 6 6.9-5.0 Light snow.
2018-Feb-23 20:00 310 8 gusting 17 4.3-5.0 Light snow.
2018-Feb-23 19:00 300 9 3.5-6.0 Light snow.
2018-Feb-23 18:10 3.5-8.0 Light snow.
2018-Feb-23 18:00 060 2 2.2-9.0 Light snow.
2018-Feb-23 17:00 070 4 1.7-9.0 Light snow.
2018-Feb-23 01:00 26.1-9.0
2018-Feb-23 00:00 26.1-10.0
2018-Feb-22 23:00 26.1-12.0
2018-Feb-22 22:00 190 2 26.1-13.0
2018-Feb-22 21:00 26.1-14.0
2018-Feb-22 20:00 26.1-17.0
2018-Feb-22 19:00 130 2 26.1-18.0
2018-Feb-22 18:00 080 4 26.1-19.0